Terminal Aerodrome Forecast
Issued by NWS

Home | Current Version | Previous Version | Text Only | Print | Product List | Glossary On
Versions: 1 2 3 4 5 6 7 8 9 10 11 12 13 14 15 16 17
000
FTUS42 KMLB 172337
TAFISM
TAF
KISM 172337Z 1800/1824 05007KT P6SM VCSH SCT040 BKN050 OVC120
      TEMPO 1800/1802 3SM TSRA SCT006 BKN025CB OVC030
     FM180300 VRB03KT P6SM SCT010 BKN080 BKN250
      TEMPO 1809/1812 5SM BR BKN008
     FM181400 25006KT P6SM SCT025 BKN250
     FM181600 27008KT P6SM VCTS SCT030CB SCT060 BKN250
      AMD NOT SKED 1803/1812=

USA.gov is the U.S. government's official web portal to all federal, state and local government web resources and services.